Time;durP1;ratioP1;P1;durP2;ratioP2;P2;SDS_P1;SDS_P2;PMS_P1;PMS_P2;Temp;Humidity;BMP_temperature;BMP_pressure;BME280_temperature;BME280_humidity;BME280_pressure;Samples;Min_cycle;Max_cycle;Signal;HPM_P1;HPM_P2
2023/06/23 00:02:05;;;;;;;;;;;;;;;26.96;50.31;100614.94;2231745;79;51693;-76
2023/06/23 00:05:11;;;;;;;;;;;;;;;26.96;50.38;100620.36;2232107;79;50150;-76
2023/06/23 00:08:12;;;;;;;;;;;;;;;26.97;50.40;100617.11;2254254;79;51725;-77
2023/06/23 00:11:14;;;;;;;;;;;;;;;26.97;50.42;100625.25;2232020;78;50359;-76
2023/06/23 00:14:16;;;;;;;;;;;;;;;26.97;50.39;100641.02;2253586;78;51201;-75
2023/06/23 00:17:17;;;;;;;;;;;;;;;26.97;50.56;100646.98;2231782;79;51579;-74
2023/06/23 00:20:19;;;;;;;;;;;;;;;26.96;50.52;100629.87;2231794;79;51595;-75
2023/06/23 00:23:21;;;;;;;;;;;;;;;26.96;50.42;100630.41;2231636;79;51507;-75
2023/06/23 00:26:23;;;;;;;;;;;;;;;26.97;50.56;100629.33;2235408;78;51818;-75
2023/06/23 00:29:25;;;;;;;;;;;;;;;26.96;50.63;100623.08;2259078;78;51529;-74
2023/06/23 00:32:27;;;;;;;;;;;;;;;26.96;50.52;100604.61;2236533;78;51718;-75
2023/06/23 00:35:28;;;;;;;;;;;;;;;26.96;50.53;100604.61;2222838;79;50691;-75
2023/06/23 00:38:30;;;;;;;;;;;;;;;26.96;50.59;100603.25;2175648;79;51645;-74
2023/06/23 00:41:32;;;;;;;;;;;;;;;26.95;50.55;100591.57;2206167;78;51444;-75
2023/06/23 00:44:34;;;;;;;;;;;;;;;26.95;50.59;100605.15;2253332;78;51493;-75
2023/06/23 00:47:35;;;;;;;;;;;;;;;26.94;50.47;100602.94;2254762;79;51266;-75
2023/06/23 00:50:37;;;;;;;;;;;;;;;26.94;50.40;100612.98;2231929;79;51481;-75
2023/06/23 00:53:38;;;;;;;;;;;;;;;26.94;50.37;100619.23;2254877;79;50664;-75
2023/06/23 00:56:40;;;;;;;;;;;;;;;26.94;50.44;100634.70;2254706;79;51502;-75
2023/06/23 00:59:42;;;;;;;;;;;;;;;26.94;50.40;100665.94;2254666;79;51553;-75
2023/06/23 01:02:43;;;;;;;;;;;;;;;26.93;50.41;100710.45;2207610;79;52478;-75
2023/06/23 01:05:45;;;;;;;;;;;;;;;26.93;50.39;100740.33;2254779;79;50681;-76
2023/06/23 01:08:48;;;;;;;;;;;;;;;26.93;50.43;100721.32;2254678;79;50242;-76
2023/06/23 01:11:51;;;;;;;;;;;;;;;26.92;50.36;100706.07;2239094;77;51296;-75
2023/06/23 01:14:54;;;;;;;;;;;;;;;26.90;50.34;100691.39;2245547;78;50571;-76
2023/06/23 01:18:16;;;;;;;;;;;;;;;26.89;50.27;100657.67;2257577;77;50294;-75
2023/06/23 01:21:20;;;;;;;;;;;;;;;26.86;50.11;100616.08;2182786;80;50328;-75
2023/06/23 01:24:23;;;;;;;;;;;;;;;26.85;50.05;100603.58;2182892;81;50053;-75
2023/06/23 01:27:44;;;;;;;;;;;;;;;26.86;50.03;100595.72;2159131;81;51985;-75
2023/06/23 01:30:47;;;;;;;;;;;;;;;26.86;50.03;100590.28;2182475;81;51412;-75
2023/06/23 01:33:50;;;;;;;;;;;;;;;26.86;50.06;100588.39;2182825;81;51506;-74
2023/06/23 01:36:53;;;;;;;;;;;;;;;26.86;50.15;100586.22;2182267;80;51647;-75
2023/06/23 01:39:55;;;;;;;;;;;;;;;26.87;50.26;100583.78;2159085;81;52629;-75
2023/06/23 01:42:57;;;;;;;;;;;;;;;26.85;50.27;100575.89;2181812;80;50859;-75
2023/06/23 01:46:06;;;;;;;;;;;;;;;26.85;50.31;100565.03;2181786;81;50909;-75
2023/06/23 01:49:10;;;;;;;;;;;;;;;26.85;50.25;100572.36;2182351;80;50794;-75
2023/06/23 01:52:11;;;;;;;;;;;;;;;26.85;50.27;100566.39;2195385;79;51832;-76
2023/06/23 01:55:14;;;;;;;;;;;;;;;26.85;50.31;100550.64;2257755;79;50317;-75
2023/06/23 01:58:15;;;;;;;;;;;;;;;26.85;50.27;100549.28;2257598;77;50703;-75
2023/06/23 02:01:17;;;;;;;;;;;;;;;26.85;50.39;100553.35;2257878;78;51480;-74
2023/06/23 02:04:19;;;;;;;;;;;;;;;26.85;50.49;100562.86;2234533;78;51269;-74
2023/06/23 02:07:20;;;;;;;;;;;;;;;26.86;50.43;100552.28;2257581;79;50789;-75
2023/06/23 02:10:24;;;;;;;;;;;;;;;26.85;50.56;100541.14;2258019;78;50278;-76
2023/06/23 02:13:25;;;;;;;;;;;;;;;26.85;50.47;100535.70;2274219;77;22365;-76
2023/06/23 02:16:27;;;;;;;;;;;;;;;26.86;50.48;100538.70;2237549;78;51695;-75
2023/06/23 02:19:29;;;;;;;;;;;;;;;26.85;50.46;100531.64;2257983;78;51582;-75
2023/06/23 02:22:31;;;;;;;;;;;;;;;26.85;50.56;100519.41;2257542;77;50658;-75
2023/06/23 02:25:32;;;;;;;;;;;;;;;26.85;50.60;100515.34;2257406;79;50680;-76
2023/06/23 02:28:34;;;;;;;;;;;;;;;26.86;50.69;100503.41;2234298;78;52245;-76
2023/06/23 02:31:36;;;;;;;;;;;;;;;26.86;50.68;100507.48;2258409;77;50700;-75
2023/06/23 02:34:38;;;;;;;;;;;;;;;26.85;50.60;100505.30;2235550;78;51599;-75
2023/06/23 02:37:42;;;;;;;;;;;;;;;26.85;50.66;100503.12;2258280;77;50308;-75
2023/06/23 02:40:44;;;;;;;;;;;;;;;26.84;50.68;100510.42;2258526;77;22422;-75
2023/06/23 02:43:54;;;;;;;;;;;;;;;26.84;50.69;100500.92;2278282;75;51540;-75
2023/06/23 02:46:57;;;;;;;;;;;;;;;26.85;50.73;100489.55;2255076;78;50344;-75
2023/06/23 02:50:00;;;;;;;;;;;;;;;26.84;50.76;100494.67;2255223;79;51469;-75
2023/06/23 02:53:06;;;;;;;;;;;;;;;26.84;50.70;100509.06;2232303;78;51863;-74
2023/06/23 02:56:07;;;;;;;;;;;;;;;26.84;50.71;100515.85;2255147;77;50729;-73
2023/06/23 02:59:10;;;;;;;;;;;;;;;26.84;50.74;100514.49;2231409;79;50439;-74
2023/06/23 03:02:12;;;;;;;;;;;;;;;26.85;50.77;100518.06;2254107;79;51515;-73
2023/06/23 03:05:14;;;;;;;;;;;;;;;26.83;50.77;100514.22;2231028;79;52501;-75
2023/06/23 03:08:15;;;;;;;;;;;;;;;26.83;50.72;100514.22;2253902;77;50409;-74
2023/06/23 03:11:19;;;;;;;;;;;;;;;26.83;50.75;100506.61;2254596;78;50654;-74
2023/06/23 03:14:21;;;;;;;;;;;;;;;26.82;50.75;100510.38;2276152;77;51486;-74
2023/06/23 03:17:23;;;;;;;;;;;;;;;26.83;50.75;100518.83;2231766;79;51186;-74
2023/06/23 03:20:26;;;;;;;;;;;;;;;26.82;50.75;100507.15;2254241;79;51473;-75
2023/06/23 03:23:28;;;;;;;;;;;;;;;26.83;50.79;100510.69;2254142;77;51601;-74
2023/06/23 03:26:29;;;;;;;;;;;;;;;26.82;50.64;100516.65;2253870;79;51430;-75
2023/06/23 03:29:31;;;;;;;;;;;;;;;26.81;50.55;100533.98;2230965;77;51648;-74
2023/06/23 03:32:33;;;;;;;;;;;;;;;26.83;50.52;100553.58;2254173;79;51591;-74
2023/06/23 03:35:36;;;;;;;;;;;;;;;26.82;50.54;100547.88;2254189;77;50308;-74
2023/06/23 03:38:40;;;;;;;;;;;;;;;26.82;50.70;100548.38;2253949;78;50490;-75
2023/06/23 03:41:41;;;;;;;;;;;;;;;26.82;50.67;100561.95;2231929;77;50025;-74
2023/06/23 03:44:44;;;;;;;;;;;;;;;26.81;50.76;100567.11;2255771;78;50466;-73
2023/06/23 03:47:46;;;;;;;;;;;;;;;26.80;50.71;100567.64;2256612;78;50096;-74
2023/06/23 03:50:48;;;;;;;;;;;;;;;26.79;50.71;100567.88;2256941;78;50707;-73
2023/06/23 03:53:49;;;;;;;;;;;;;;;26.79;50.64;100574.66;2233179;79;52478;-74
2023/06/23 03:56:51;;;;;;;;;;;;;;;26.81;50.62;100576.60;2256626;77;50463;-75
2023/06/23 03:59:52;;;;;;;;;;;;;;;26.80;50.79;100577.14;2256717;79;50689;-74
2023/06/23 04:02:54;;;;;;;;;;;;;;;26.78;50.78;100575.20;2256852;78;51467;-73
2023/06/23 04:05:56;;;;;;;;;;;;;;;26.79;50.80;100581.44;2233530;79;52290;-74
2023/06/23 04:08:57;;;;;;;;;;;;;;;26.78;50.86;100587.95;2256701;78;52345;-73
2023/06/23 04:11:59;;;;;;;;;;;;;;;26.79;50.73;100595.02;2257262;77;50445;-74
2023/06/23 04:15:00;;;;;;;;;;;;;;;26.78;50.74;100600.16;2255767;78;51452;-75
2023/06/23 04:18:02;;;;;;;;;;;;;;;26.78;50.71;100600.98;2209778;79;52538;-74
2023/06/23 04:21:03;;;;;;;;;;;;;;;26.79;50.74;100614.02;2256966;78;50406;-74
2023/06/23 04:24:05;;;;;;;;;;;;;;;26.77;50.67;100630.56;2256959;79;51416;-74
2023/06/23 04:27:07;;;;;;;;;;;;;;;26.76;50.85;100635.68;2256656;78;51305;-74
2023/06/23 04:30:09;;;;;;;;;;;;;;;26.78;50.83;100642.24;2233555;79;52263;-75
2023/06/23 04:33:10;;;;;;;;;;;;;;;26.78;50.77;100647.67;2256932;77;50758;-76
2023/06/23 04:36:20;;;;;;;;;;;;;;;26.78;50.91;100654.46;2256849;77;51439;-75
2023/06/23 04:39:27;;;;;;;;;;;;;;;26.77;50.95;100655.50;2234174;79;50880;-76
2023/06/23 04:42:30;;;;;;;;;;;;;;;26.77;50.95;100647.36;2257723;77;22446;-75
2023/06/23 04:45:33;;;;;;;;;;;;;;;26.77;50.91;100644.14;2233025;78;51562;-76
2023/06/23 04:48:36;;;;;;;;;;;;;;;26.76;51.01;100642.47;2256782;77;50081;-76
2023/06/23 04:51:43;;;;;;;;;;;;;;;26.78;51.00;100644.95;2255694;78;50074;-76
2023/06/23 04:54:45;;;;;;;;;;;;;;;26.77;51.01;100641.42;2233822;79;51268;-76
2023/06/23 04:57:46;;;;;;;;;;;;;;;26.77;50.92;100641.93;2256760;78;50398;-75
2023/06/23 05:00:48;;;;;;;;;;;;;;;26.70;50.73;100638.82;2256856;79;51614;-75
2023/06/23 05:03:50;;;;;;;;;;;;;;;26.68;50.68;100655.88;2256993;79;51554;-76
2023/06/23 05:06:52;;;;;;;;;;;;;;;26.65;50.70;100653.63;2235172;78;51293;-76
2023/06/23 05:09:53;;;;;;;;;;;;;;;26.64;50.87;100662.85;2258903;78;50427;-77
2023/06/23 05:12:55;;;;;;;;;;;;;;;26.64;51.12;100664.72;2257592;78;50443;-76
2023/06/23 05:15:57;;;;;;;;;;;;;;;26.58;51.08;100665.14;2256159;78;50049;-76
2023/06/23 05:18:58;;;;;;;;;;;;;;;26.54;51.09;100661.27;2257001;79;50691;-76
2023/06/23 05:22:00;;;;;;;;;;;;;;;26.56;51.02;100650.97;2257325;79;50646;-76
2023/06/23 05:25:04;;;;;;;;;;;;;;;26.52;50.99;100652.52;2257220;79;51355;-76
2023/06/23 05:28:05;;;;;;;;;;;;;;;26.53;50.99;100665.02;2222157;78;22370;-76
2023/06/23 05:31:06;;;;;;;;;;;;;;;26.44;51.26;100674.56;2234887;78;51204;-76
2023/06/23 05:34:08;;;;;;;;;;;;;;;26.38;51.30;100672.23;2257223;79;50422;-77
2023/06/23 05:37:10;;;;;;;;;;;;;;;26.15;51.90;100671.70;2257145;78;50835;-74
2023/06/23 05:40:13;;;;;;;;;;;;;;;25.85;52.80;100673.91;2257135;77;50690;-75
2023/06/23 05:43:14;;;;;;;;;;;;;;;25.64;53.37;100686.59;2252947;77;51754;-78
2023/06/23 05:46:16;;;;;;;;;;;;;;;25.63;53.47;100681.67;2230799;79;51672;-78
2023/06/23 05:49:18;;;;;;;;;;;;;;;25.55;53.85;100679.83;2231122;79;52434;-77
2023/06/23 05:52:20;;;;;;;;;;;;;;;25.55;54.03;100685.25;2254007;79;50428;-77
2023/06/23 05:55:21;;;;;;;;;;;;;;;25.70;53.35;100692.97;2254234;79;50427;-77
2023/06/23 05:58:23;;;;;;;;;;;;;;;25.66;53.78;100684.45;2253883;79;50159;-76
2023/06/23 06:01:25;;;;;;;;;;;;;;;25.18;54.85;100687.47;2254123;77;50316;-75
2023/06/23 06:04:29;;;;;;;;;;;;;;;25.02;55.19;100685.31;2254062;79;51529;-77
2023/06/23 06:07:30;;;;;;;;;;;;;;;24.62;56.63;100682.20;2230664;79;51135;-77
2023/06/23 06:10:32;;;;;;;;;;;;;;;24.15;58.11;100679.86;2254061;79;52247;-78
2023/06/23 06:13:35;;;;;;;;;;;;;;;24.10;58.01;100682.39;2232733;78;50083;-77
2023/06/23 06:16:36;;;;;;;;;;;;;;;;;;2256754;77;51528;-78
2023/06/23 06:19:38;;;;;;;;;;;;;;;24.02;58.62;100679.44;2257120;77;50343;-75
2023/06/23 06:22:39;;;;;;;;;;;;;;;24.12;58.21;100676.22;2233986;78;51743;-75
2023/06/23 06:25:41;;;;;;;;;;;;;;;24.46;56.99;100678.19;2256900;78;50745;-74
2023/06/23 06:28:43;;;;;;;;;;;;;;;24.72;56.22;100671.70;2256752;77;50354;-74
2023/06/23 06:31:45;;;;;;;;;;;;;;;24.93;55.58;100673.97;2256974;79;50292;-75
2023/06/23 06:34:47;;;;;;;;;;;;;;;25.09;55.13;100664.41;2234248;77;52481;-75
2023/06/23 06:37:48;;;;;;;;;;;;;;;25.20;54.81;100667.77;2234187;78;51531;-73
2023/06/23 06:40:51;;;;;;;;;;;;;;;25.28;54.69;100670.70;2257470;79;50368;-74
2023/06/23 06:43:53;;;;;;;;;;;;;;;25.36;54.76;100673.63;2275834;77;51582;-74
2023/06/23 06:46:54;;;;;;;;;;;;;;;25.41;55.10;100674.59;2257236;77;50419;-74
2023/06/23 06:49:57;;;;;;;;;;;;;;;25.50;55.25;100682.39;2256891;77;50306;-73
2023/06/23 06:52:58;;;;;;;;;;;;;;;25.54;54.78;100683.61;2255830;78;51540;-75
2023/06/23 06:56:00;;;;;;;;;;;;;;;25.58;54.77;100683.42;2257929;78;52251;-74
2023/06/23 06:59:01;;;;;;;;;;;;;;;25.61;54.71;100681.11;2266570;77;50350;-74
2023/06/23 07:02:03;;;;;;;;;;;;;;;25.64;54.70;100686.59;2274926;77;52189;-73
2023/06/23 07:05:05;;;;;;;;;;;;;;;25.67;54.49;100679.36;2291164;77;51536;-73
2023/06/23 07:08:07;;;;;;;;;;;;;;;25.69;54.48;100686.73;2292917;76;50705;-74
2023/06/23 07:11:08;;;;;;;;;;;;;;;25.72;54.40;100688.16;2288932;77;51165;-73
2023/06/23 07:14:10;;;;;;;;;;;;;;;25.73;54.50;100687.91;2252463;78;49928;-74
2023/06/23 07:17:12;;;;;;;;;;;;;;;25.75;54.33;100683.09;2253832;79;50448;-75
2023/06/23 07:20:13;;;;;;;;;;;;;;;25.76;54.31;100683.38;2230954;79;50315;-74
2023/06/23 07:23:15;;;;;;;;;;;;;;;25.78;54.19;100677.20;2207024;79;51173;-74
2023/06/23 07:26:16;;;;;;;;;;;;;;;25.80;54.02;100681.88;2253804;79;49926;-75
2023/06/23 07:29:18;;;;;;;;;;;;;;;25.81;53.98;100698.42;2254052;79;50304;-75
2023/06/23 07:32:20;;;;;;;;;;;;;;;25.82;53.92;100698.73;2253834;77;50432;-74
2023/06/23 07:35:21;;;;;;;;;;;;;;;25.81;53.98;100705.20;2231656;77;50164;-74
2023/06/23 07:38:23;;;;;;;;;;;;;;;25.83;53.81;100704.45;2230497;79;51726;-75
2023/06/23 07:41:24;;;;;;;;;;;;;;;25.84;53.75;100714.28;2228800;79;51542;-73
2023/06/23 07:44:26;;;;;;;;;;;;;;;25.85;53.71;100719.99;2255801;79;50652;-74
2023/06/23 07:47:27;;;;;;;;;;;;;;;25.85;53.71;100711.04;2233262;78;51507;-74
2023/06/23 07:50:29;;;;;;;;;;;;;;;25.87;53.66;100702.16;2256849;79;51882;-74
2023/06/23 07:53:31;;;;;;;;;;;;;;;25.88;53.59;100715.17;2233689;77;51454;-74
2023/06/23 07:56:32;;;;;;;;;;;;;;;25.89;53.56;100719.52;2257532;78;50753;-73
2023/06/23 07:59:34;;;;;;;;;;;;;;;25.89;53.50;100720.88;2211211;78;51436;-72
2023/06/23 08:02:36;;;;;;;;;;;;;;;25.89;53.51;100723.59;2236120;78;50518;-74
2023/06/23 08:05:38;;;;;;;;;;;;;;;25.89;53.48;100716.81;2258283;77;51601;-73
2023/06/23 08:08:40;;;;;;;;;;;;;;;25.90;53.55;100711.70;2257261;77;50821;-72
2023/06/23 08:11:42;;;;;;;;;;;;;;;25.91;53.45;100718.77;2206900;78;51900;-74
2023/06/23 08:14:43;;;;;;;;;;;;;;;25.92;53.48;100725.84;2265405;77;51405;-72
2023/06/23 08:17:45;;;;;;;;;;;;;;;25.92;53.36;100736.68;2257705;78;51602;-75
2023/06/23 08:20:47;;;;;;;;;;;;;;;25.93;53.34;100732.93;2236290;78;50752;-75
2023/06/23 08:23:48;;;;;;;;;;;;;;;25.93;53.38;100741.06;2212126;78;51191;-75
2023/06/23 08:26:50;;;;;;;;;;;;;;;25.93;53.30;100738.35;2235889;78;50158;-75
2023/06/23 08:29:51;;;;;;;;;;;;;;;25.94;53.35;100740.00;2236213;78;50115;-74
2023/06/23 08:32:53;;;;;;;;;;;;;;;25.95;53.27;100743.02;2236947;77;50306;-74
2023/06/23 08:35:54;;;;;;;;;;;;;;;25.97;53.17;100738.17;2271712;77;51728;-74
2023/06/23 08:38:56;;;;;;;;;;;;;;;25.95;53.15;100744.38;2274979;77;52645;-73
2023/06/23 08:41:58;;;;;;;;;;;;;;;25.95;53.22;100743.02;2288496;76;51541;-74
2023/06/23 08:45:00;;;;;;;;;;;;;;;25.96;53.36;100752.27;2289288;77;50732;-73
2023/06/23 08:48:02;;;;;;;;;;;;;;;25.95;53.27;100754.69;2248705;77;51454;-76
2023/06/23 08:51:04;;;;;;;;;;;;;;;25.96;53.31;100752.27;2257273;77;51637;-75
2023/06/23 08:54:05;;;;;;;;;;;;;;;25.96;53.14;100755.52;2262481;77;50018;-75
2023/06/23 08:57:07;;;;;;;;;;;;;;;25.95;53.19;100761.47;2259002;77;50266;-77
2023/06/23 09:00:09;;;;;;;;;;;;;;;25.96;53.07;100774.49;2236004;78;52437;-75
2023/06/23 09:03:11;;;;;;;;;;;;;;;25.97;53.01;100769.36;2233150;79;50300;-73
2023/06/23 09:06:12;;;;;;;;;;;;;;;25.97;52.99;100770.70;2231025;79;50184;-75
2023/06/23 09:09:14;;;;;;;;;;;;;;;25.97;52.99;100772.06;2254370;79;50299;-74
2023/06/23 09:12:16;;;;;;;;;;;;;;;25.97;52.98;100776.13;2231520;79;51830;-74
2023/06/23 09:15:18;;;;;;;;;;;;;;;25.97;52.92;100782.41;2275063;75;50404;-74
2023/06/23 09:18:19;;;;;;;;;;;;;;;25.99;52.91;100789.76;2254193;79;50253;-75
2023/06/23 09:21:21;;;;;;;;;;;;;;;25.99;52.91;100787.58;2238449;77;50606;-74
2023/06/23 09:24:23;;;;;;;;;;;;;;;25.97;52.91;100786.47;2235830;77;51851;-75
2023/06/23 09:27:40;;;;;;;;;;;;;;;25.99;52.90;100793.00;2283256;77;51598;-76
2023/06/23 09:30:42;;;;;;;;;;;;;;;25.99;52.87;100790.30;2296836;77;50392;-76
2023/06/23 09:33:47;;;;;;;;;;;;;;;25.98;52.88;100792.72;2243330;77;50159;-76
2023/06/23 09:36:49;;;;;;;;;;;;;;;25.98;52.91;100800.31;2270607;77;50688;-74
2023/06/23 09:39:50;;;;;;;;;;;;;;;25.99;52.90;100801.14;2240210;77;51676;-76
2023/06/23 09:42:53;;;;;;;;;;;;;;;25.99;52.89;100791.65;2239980;78;50792;-77
2023/06/23 09:45:55;;;;;;;;;;;;;;;25.98;52.86;100796.25;2305023;77;50810;-75
2023/06/23 09:48:56;;;;;;;;;;;;;;;25.99;52.87;100794.36;2224706;79;52530;-74
2023/06/23 09:51:58;;;;;;;;;;;;;;;25.99;52.88;100801.96;2231390;79;51446;-75
2023/06/23 09:55:01;;;;;;;;;;;;;;;25.99;52.89;100811.98;2199030;80;51963;-75
2023/06/23 09:58:08;;;;;;;;;;;;;;;25.98;52.90;100812.52;2257437;77;50361;-75
2023/06/23 10:01:12;;;;;;;;;;;;;;;25.99;52.91;100813.34;2308826;77;22256;-74
2023/06/23 10:04:13;;;;;;;;;;;;;;;25.99;52.87;100811.98;2264207;77;52466;-76
2023/06/23 10:07:22;;;;;;;;;;;;;;;25.97;52.94;100819.52;2315482;75;50436;-76
2023/06/23 10:10:24;;;;;;;;;;;;;;;25.99;52.88;100816.05;2315685;77;52248;-76
2023/06/23 10:13:25;;;;;;;;;;;;;;;25.99;52.87;100810.63;2252021;77;50167;-75
2023/06/23 10:16:27;;;;;;;;;;;;;;;25.99;52.87;100816.05;2254433;78;50680;-77
2023/06/23 10:19:28;;;;;;;;;;;;;;;25.98;52.84;100817.94;2284042;77;50363;-75
2023/06/23 10:22:30;;;;;;;;;;;;;;;25.97;52.86;100820.87;2294586;76;50692;-75
2023/06/23 10:25:33;;;;;;;;;;;;;;;25.96;52.85;100816.52;2256314;77;50978;-74
2023/06/23 10:28:36;;;;;;;;;;;;;;;25.97;52.83;100819.52;2230851;79;52427;-76
2023/06/23 10:31:38;;;;;;;;;;;;;;;25.97;52.78;100816.80;2267042;75;50307;-76
2023/06/23 10:34:39;;;;;;;;;;;;;;;25.97;52.80;100822.22;2315089;76;51513;-73
2023/06/23 10:37:43;;;;;;;;;;;;;;;25.98;52.79;100826.61;2284244;77;51445;-75
2023/06/23 10:40:46;;;;;;;;;;;;;;;25.98;52.78;100833.39;2276338;77;51285;-76
2023/06/23 10:43:48;;;;;;;;;;;;;;;25.98;52.76;100844.23;2251899;77;50419;-74
2023/06/23 10:46:49;;;;;;;;;;;;;;;25.96;52.78;100851.23;2256591;78;50320;-75
2023/06/23 10:49:51;;;;;;;;;;;;;;;25.96;52.78;100857.19;2296761;76;50377;-74
2023/06/23 10:52:52;;;;;;;;;;;;;;;25.96;52.75;100859.89;2233395;77;51723;-75
2023/06/23 10:55:57;;;;;;;;;;;;;;;25.96;52.78;100867.50;2254220;77;51431;-75
2023/06/23 10:58:59;;;;;;;;;;;;;;;25.97;52.75;100866.96;2253881;78;50497;-76
2023/06/23 11:02:07;;;;;;;;;;;;;;;25.96;52.75;100870.20;2232665;79;50368;-75
2023/06/23 11:05:06;;;;;;;;;;;;;;;25.97;52.73;100866.96;2255536;77;22379;-75
2023/06/23 11:08:09;;;;;;;;;;;;;;;25.97;52.72;100871.88;2223957;78;51624;-75
2023/06/23 11:11:11;;;;;;;;;;;;;;;25.97;52.70;100884.08;2230765;78;50714;-76
2023/06/23 11:14:17;;;;;;;;;;;;;;;25.97;52.72;100885.94;2248945;78;50294;-74
2023/06/23 11:17:18;;;;;;;;;;;;;;;25.96;52.71;100885.13;2256824;78;22285;-73
2023/06/23 11:20:22;;;;;;;;;;;;;;;25.96;52.71;100893.25;2257900;77;50452;-75
2023/06/23 11:23:23;;;;;;;;;;;;;;;25.97;52.67;100888.66;2258825;78;50350;-73
2023/06/23 11:26:28;;;;;;;;;;;;;;;25.97;52.67;100892.22;2258441;77;50279;-76
2023/06/23 11:29:31;;;;;;;;;;;;;;;25.98;52.65;100888.44;2199372;80;52578;-75
2023/06/23 11:32:32;;;;;;;;;;;;;;;25.98;52.69;100899.82;2222351;79;23087;-74
2023/06/23 11:35:34;;;;;;;;;;;;;;;25.99;52.68;100902.81;2222681;79;51576;-74
2023/06/23 11:38:36;;;;;;;;;;;;;;;25.99;52.70;100894.69;2223994;78;52374;-75
2023/06/23 11:41:38;;;;;;;;;;;;;;;25.99;52.67;100905.00;2207429;77;50180;-75
2023/06/23 11:44:39;;;;;;;;;;;;;;;25.99;52.65;100904.17;2252177;78;50646;-75
2023/06/23 11:47:41;;;;;;;;;;;;;;;25.99;52.67;100904.17;2233365;79;52583;-74
2023/06/23 11:50:43;;;;;;;;;;;;;;;25.99;52.67;100909.59;2256990;77;51354;-75
2023/06/23 11:53:47;;;;;;;;;;;;;;;25.99;52.69;100914.48;2233247;79;52318;-75
2023/06/23 11:56:49;;;;;;;;;;;;;;;25.99;52.65;100923.98;2256805;79;50374;-76
2023/06/23 11:59:52;;;;;;;;;;;;;;;25.99;52.65;100932.11;2245179;77;50344;-75
2023/06/23 12:02:54;;;;;;;;;;;;;;;25.98;52.73;100944.02;2288225;76;50711;-73
2023/06/23 12:05:56;;;;;;;;;;;;;;;25.97;52.70;100940.17;2236026;76;51432;-74
2023/06/23 12:08:58;;;;;;;;;;;;;;;25.97;52.71;100948.30;2280755;77;50475;-74
2023/06/23 12:11:59;;;;;;;;;;;;;;;25.97;52.71;100942.88;2283571;77;51488;-74
2023/06/23 12:15:02;;;;;;;;;;;;;;;25.96;52.72;100943.95;2260285;77;50650;-75
2023/06/23 12:18:04;;;;;;;;;;;;;;;25.96;52.72;100944.77;2225863;77;52780;-73
2023/06/23 12:21:06;;;;;;;;;;;;;;;25.95;52.70;100943.13;2270345;77;51497;-73
2023/06/23 12:24:10;;;;;;;;;;;;;;;25.95;52.69;100947.19;2273038;77;50389;-73
2023/06/23 12:27:12;;;;;;;;;;;;;;;25.97;52.66;100944.23;2260852;77;51733;-73
2023/06/23 12:30:15;;;;;;;;;;;;;;;25.96;52.64;100942.06;2272665;77;51162;-74
2023/06/23 12:33:16;;;;;;;;;;;;;;;25.96;52.65;100942.06;2296758;77;49903;-74
2023/06/23 12:36:18;;;;;;;;;;;;;;;25.96;52.63;100951.55;2262658;76;51520;-73
2023/06/23 12:39:22;;;;;;;;;;;;;;;25.97;52.64;100953.73;2231057;79;51497;-74
2023/06/23 12:42:24;;;;;;;;;;;;;;;25.96;52.64;100952.91;2223130;77;52647;-73
2023/06/23 12:45:25;;;;;;;;;;;;;;;25.96;52.65;100960.22;2234520;78;51514;-75
2023/06/23 12:48:27;;;;;;;;;;;;;;;25.95;52.64;100953.97;2257744;78;51552;-75
2023/06/23 12:51:35;;;;;;;;;;;;;;;25.96;52.64;100961.58;2235848;78;51584;-74
2023/06/23 12:54:37;;;;;;;;;;;;;;;25.95;52.64;100965.35;2211761;78;51207;-74
2023/06/23 12:57:38;;;;;;;;;;;;;;;25.95;52.65;100973.48;2258547;77;50386;-75
2023/06/23 13:00:41;;;;;;;;;;;;;;;25.94;52.67;100979.94;2263192;77;50729;-74
2023/06/23 13:03:43;;;;;;;;;;;;;;;25.93;52.66;100977.77;2274018;77;50435;-75
2023/06/23 13:06:44;;;;;;;;;;;;;;;25.94;52.68;100998.92;2245890;77;51250;-74
2023/06/23 13:09:46;;;;;;;;;;;;;;;25.94;52.72;101003.81;2270014;77;50239;-75
2023/06/23 13:12:47;;;;;;;;;;;;;;;25.93;52.68;101010.83;2256902;77;50449;-75
2023/06/23 13:15:49;;;;;;;;;;;;;;;25.93;52.60;101017.61;2251901;78;50694;-75
2023/06/23 13:18:51;;;;;;;;;;;;;;;25.93;52.55;101023.03;2254100;79;51443;-75
2023/06/23 13:21:53;;;;;;;;;;;;;;;25.93;52.49;101033.87;2254362;79;50507;-74
2023/06/23 13:24:56;;;;;;;;;;;;;;;25.92;52.45;101037.13;2231316;79;51554;-74
2023/06/23 13:27:58;;;;;;;;;;;;;;;25.92;52.38;101034.41;2231184;79;51626;-73
2023/06/23 13:30:59;;;;;;;;;;;;;;;25.92;52.33;101044.41;2231193;79;49609;-75
2023/06/23 13:34:01;;;;;;;;;;;;;;;25.91;52.21;101047.64;2231350;79;50700;-74
2023/06/23 13:37:03;;;;;;;;;;;;;;;25.91;52.18;101046.82;2254121;79;51453;-73
2023/06/23 13:40:12;;;;;;;;;;;;;;;25.91;52.11;101059.84;2254291;79;50342;-74
2023/06/23 13:43:11;;;;;;;;;;;;;;;25.90;52.05;101068.22;2231845;79;22321;-74
2023/06/23 13:46:13;;;;;;;;;;;;;;;25.89;51.95;101067.90;2233769;78;50734;-76
2023/06/23 13:49:15;;;;;;;;;;;;;;;25.88;51.94;101079.27;2257046;77;50375;-73
2023/06/23 13:52:16;;;;;;;;;;;;;;;25.88;51.89;101075.73;2232893;78;50115;-75
2023/06/23 13:55:18;;;;;;;;;;;;;;;25.87;51.78;101077.63;2209691;79;51861;-74
2023/06/23 13:58:19;;;;;;;;;;;;;;;25.87;51.76;101087.11;2234396;78;50321;-73
2023/06/23 14:01:21;;;;;;;;;;;;;;;25.85;51.75;101082.43;2257013;79;50676;-74
2023/06/23 14:04:23;;;;;;;;;;;;;;;25.85;51.71;101081.91;2257143;79;50352;-75
2023/06/23 14:07:25;;;;;;;;;;;;;;;25.83;51.69;101096.16;2233955;78;52417;-74
2023/06/23 14:10:26;;;;;;;;;;;;;;;25.84;51.65;101100.59;2231231;79;50807;-74
2023/06/23 14:13:28;;;;;;;;;;;;;;;25.83;51.65;101100.77;2238476;77;51547;-75
2023/06/23 14:16:30;;;;;;;;;;;;;;;25.83;51.65;101117.03;2246006;77;50751;-75
2023/06/23 14:19:31;;;;;;;;;;;;;;;25.81;51.65;101119.95;2231515;79;50170;-74
2023/06/23 14:22:33;;;;;;;;;;;;;;;25.82;51.61;101118.09;2254243;78;51509;-76
2023/06/23 14:25:35;;;;;;;;;;;;;;;25.80;51.66;101131.03;2254530;77;50739;-76
2023/06/23 14:28:36;;;;;;;;;;;;;;;25.81;51.83;101138.92;2261704;77;51495;-74
2023/06/23 14:31:38;;;;;;;;;;;;;;;25.81;51.90;101144.34;2260465;76;52456;-74
2023/06/23 14:34:40;;;;;;;;;;;;;;;25.81;51.92;101144.34;2297860;76;51554;-76
2023/06/23 14:37:42;;;;;;;;;;;;;;;25.81;51.87;101155.72;2288620;76;50761;-76
2023/06/23 14:40:43;;;;;;;;;;;;;;;25.79;51.81;101160.52;2269987;77;51576;-75
2023/06/23 14:43:45;;;;;;;;;;;;;;;25.79;51.76;101160.02;2229128;77;51995;-75
2023/06/23 14:46:47;;;;;;;;;;;;;;;25.79;51.68;101178.14;2254010;77;50313;-74
2023/06/23 14:49:49;;;;;;;;;;;;;;;25.78;51.56;101170.55;2255279;77;51560;-75
2023/06/23 14:52:50;;;;;;;;;;;;;;;25.77;51.45;101177.03;2277744;76;50385;-74
2023/06/23 14:55:52;;;;;;;;;;;;;;;25.77;51.39;101174.84;2242246;77;51272;-75
2023/06/23 14:58:53;;;;;;;;;;;;;;;25.75;51.33;101176.41;2255834;77;50657;-74
2023/06/23 15:01:55;;;;;;;;;;;;;;;25.73;51.15;101181.20;2242961;78;50012;-74
2023/06/23 15:04:57;;;;;;;;;;;;;;;25.75;51.15;101189.13;2233085;78;50822;-76
2023/06/23 15:07:58;;;;;;;;;;;;;;;25.73;51.04;101182.56;2197262;79;51185;-75
2023/06/23 15:11:00;;;;;;;;;;;;;;;25.73;50.98;101189.34;2255869;76;49780;-74
2023/06/23 15:14:02;;;;;;;;;;;;;;;25.72;51.67;101198.53;2275864;77;51549;-74
2023/06/23 15:17:04;;;;;;;;;;;;;;;25.72;51.55;101193.11;2256920;77;50357;-73
2023/06/23 15:20:06;;;;;;;;;;;;;;;25.72;51.50;101188.22;2233134;78;51465;-73
2023/06/23 15:23:07;;;;;;;;;;;;;;;25.69;51.38;101197.62;2256970;79;50339;-73
2023/06/23 15:26:09;;;;;;;;;;;;;;;25.68;51.46;101194.58;2256821;77;51581;-73
2023/06/23 15:29:11;;;;;;;;;;;;;;;25.69;51.34;101197.62;2234479;77;51634;-73
2023/06/23 15:32:12;;;;;;;;;;;;;;;25.70;51.32;101207.93;2235707;78;52409;-73
2023/06/23 15:35:14;;;;;;;;;;;;;;;25.70;51.24;101206.58;2235788;78;51552;-73
2023/06/23 15:38:15;;;;;;;;;;;;;;;25.68;51.47;101212.20;2235695;78;51468;-73